02h12 EDT


 

Suivi/Infos de l'aéroport


-ou-


 

Suivi des vols en temps réelTradewind #27 ✈ 15-06-2013 ✈ KBOS - KHPN

Thumbnail
Tradewind 27
GPD27 · "Goodspeed" (tous les vols)
Int'l Logan ()
Westchester County ()
00h21 EDT
00h38 EDT
Prévu: 00h34 EDT
Prévu: 01h34 EDT
Durée: 17 minutes
samedi, 15 juin 2013
Statut A atterri il y a plus d'un an. (journal de vol & graphique)
Avion Pilatus PC-12 (monoturbopropulseur) (PC12/T – photos)
Vitesse Plan de vol: 144 kts (graphique)
Altitude (graphique)
Distance En ligne droite 267 km    Parcourue 267 km
TarifAverage: $240.02 (Aperçu sur les compagnies aériennes)
Route n/a
JOURNAL DE L'ACTIVITE
Vous voulez une recherche complète sur l'historique de GPD27 depuis 1998? Achetez maintenant. Recevez-le dans l'heure.
Date Avion Provenance Destination Départ Arrivée Durée
23-07-2014 PC12/GWestchester County ()Int'l Logan () 16h09 EDT 16h51 EDT (?) 0:42
23-07-2014 PC12Igor I Sikorsky Memorial ()Int'l Logan () 16h04 EDT 16h52 EDT 0:47
22-07-2014 PC12/GNantucket Memorial ()Westchester County () 18h06 EDT 18h50 EDT 0:44
22-07-2014 UnknownPrès de Bridgeport, CTNantucket Memorial () 12h52 UTC 09h57 EDT 1:04
22-07-2014 PC12/GWaterbury-Oxford ()Westchester County () 07h29 EDT 07h53 EDT 0:24
21-07-2014 PC12/GEast Hampton ()Waterbury-Oxford () 15h57 EDT 16h13 EDT 0:16
21-07-2014 PC12/GInt'l Newark Liberty ()East Hampton () 14h47 EDT 15h13 EDT 0:26
21-07-2014 PC12/GWestchester County ()Int'l Newark Liberty () 12h22 EDT 12h45 EDT 0:22
21-07-2014 PC12Marthas Vineyard ()Westchester County () 09h59 EDT 10h43 EDT 0:44
21-07-2014 PC12/GWestchester County ()Marthas Vineyard () 08h07 EDT 08h50 EDT (?) 0:42
21-07-2014 PC12Près de Bridgeport, CTMarthas Vineyard () 12h01 UTC 08h47 EDT 0:46
21-07-2014 PC12/GMarthas Vineyard ()Westchester County () 06h12 EDT 06h59 EDT 0:47
21-07-2014 PC12/GWaterbury-Oxford ()Marthas Vineyard () 04h43 EDT 05h22 EDT 0:39
20-07-2014 PC12/LMorristown Muni ()Waterbury-Oxford () 22h18 EDT 21h39 EDT (?) n/a
20-07-2014 PC12Nantucket Memorial ()Morristown Muni () 20h46 EDT 21h51 EDT 1:05
20-07-2014 PC12/LWestchester County ()Nantucket Memorial () 19h20 EDT 18h59 EDT (?) n/a
20-07-2014 PC12Westchester County ()Nantucket Memorial () 19h14 EDT 20h08 EDT 0:54
20-07-2014 PC12/LNantucket Memorial ()Westchester County () 17h16 EDT 18h14 EDT 0:58
18-07-2014 PC12Près de Bridgeport, CTNantucket Memorial () 23h36 UTC 20h20 EDT 0:44
18-07-2014 PC12R FMH 127 15Westchester County () 21h23 UTC 18h05 EDT 0:42
18-07-2014 UnknownPrès de Bridgeport, CTNantucket Memorial () 19h52 UTC 16h37 EDT 0:45
18-07-2014 PC12Nantucket Memorial ()Westchester County () 14h11 EDT 15h06 EDT 0:55
18-07-2014 PC12Igor I Sikorsky Memorial ()Nantucket Memorial () 12h47 EDT 13h34 EDT 0:47
18-07-2014 PC12Nantucket Memorial ()Westchester County () 10h53 EDT 11h48 EDT (?) 0:55
18-07-2014 PC12/TWestchester County ()Nantucket Memorial () 09h37 EDT 10h16 EDT 0:39
17-07-2014 PC12/GNantucket Memorial ()Westchester County () 20h27 EDT 21h14 EDT 0:47
17-07-2014 PC12/GTeterboro ()Nantucket Memorial () 19h10 EDT 20h14 EDT 1:04
17-07-2014 PC12/GBlock Island State ()Teterboro () 15h30 EDT 16h05 EDT 0:35
17-07-2014 PC12/GTeterboro ()Block Island State () 14h16 EDT 14h54 EDT 0:37
16-07-2014 PC12/GLaconia Muni ()Teterboro () 15h51 EDT 16h45 EDT 0:54
16-07-2014 PC12/GLaGuardia ()Laconia Muni () 10h13 EDT 11h00 EDT 0:46
16-07-2014 PC12/GWaterbury-Oxford ()LaGuardia () 08h09 EDT 08h36 EDT 0:27
14-07-2014 PC12/GWestchester County ()Waterbury-Oxford () 11h52 EDT 12h09 EDT 0:17
14-07-2014 PC12Nantucket Memorial ()Westchester County () 10h17 EDT 11h10 EDT 0:53
14-07-2014 PC12/GWestchester County ()Nantucket Memorial () 08h44 EDT 09h38 EDT 0:54
14-07-2014 PC12/GNantucket Memorial ()Westchester County () 07h08 EDT 08h04 EDT 0:56
14-07-2014 PC12/GGroton-New London ()Nantucket Memorial () 05h20 EDT 06h05 EDT (?) 0:45
13-07-2014 PC12/GChatham Muni ()Westchester County () 16h31 EDT 17h22 EDT 0:51
13-07-2014 PC12/GMorristown Muni ()Chatham Muni () 15h14 EDT 16h05 EDT 0:51
13-07-2014 PC12Nantucket Memorial ()Morristown Muni () 13h35 EDT 14h45 EDT 1:10
13-07-2014 PC12/GTeterboro ()Nantucket Memorial () 11h38 EDT 12h22 EDT 0:44
13-07-2014 PC12/GNantucket Memorial ()Teterboro () 10h15 EDT 11h06 EDT 0:51
13-07-2014 PC12/GWaterbury-Oxford ()Nantucket Memorial () 08h38 EDT 09h10 EDT 0:32
11-07-2014 PC12/GMarthas Vineyard ()Waterbury-Oxford () 20h30 EDT 21h04 EDT 0:34
11-07-2014 PC12/GDanbury Muni ()Marthas Vineyard () 19h08 EDT 19h32 EDT (?) 0:23
11-07-2014 PC12Près de Oxford, CTMarthas Vineyard () 22h59 UTC 19h37 EDT 0:37
11-07-2014 PC12/GNantucket Memorial ()Danbury Muni () 17h29 EDT 18h18 EDT 0:49
11-07-2014 PC12/GTeterboro ()Nantucket Memorial () 15h52 EDT 16h36 EDT 0:43
11-07-2014 PC12/GMarthas Vineyard ()Teterboro () 12h40 EDT 13h24 EDT 0:44
11-07-2014 PC12/GWestchester County ()Marthas Vineyard () 11h38 EDT 12h18 EDT (?) 0:40
11-07-2014 PC12Près de Bridgeport, CTMarthas Vineyard () 15h34 UTC 12h15 EDT 0:41
10-07-2014 PC12/GMartin State ()Westchester County () 18h26 EDT 19h16 EDT 0:50
10-07-2014 PC12/GWestchester County ()Martin State () 16h53 EDT 17h49 EDT 0:56
Les membres inscrits (l'inscription est gratuite et facile!) voient 4 months d'historique. S'inscrire